createdAt,value
2022-10-08T00:00:25.197Z,65.32
2022-10-08T00:04:06.906Z,65.48
2022-10-08T00:07:33.817Z,65.44
2022-10-08T00:11:03.373Z,65.69
2022-10-08T00:14:30.144Z,65.71
2022-10-08T00:17:57.125Z,65.86
2022-10-08T00:21:26.130Z,65.83
2022-10-08T00:24:55.785Z,65.84
2022-10-08T00:28:23.109Z,65.86
2022-10-08T00:31:51.932Z,65.82
2022-10-08T00:35:19.557Z,65.78
2022-10-08T00:38:46.483Z,65.77
2022-10-08T00:42:14.722Z,65.75
2022-10-08T00:45:43.437Z,65.54
2022-10-08T00:49:20.331Z,65.64
2022-10-08T00:52:50.811Z,65.65
2022-10-08T00:56:17.481Z,65.55
2022-10-08T00:59:44.552Z,65.62
2022-10-08T01:03:12.178Z,65.73
2022-10-08T01:06:47.755Z,65.81
2022-10-08T01:10:26.287Z,65.88
2022-10-08T01:14:05.930Z,65.82
2022-10-08T01:17:45.627Z,65.86
2022-10-08T01:21:17.652Z,65.89
2022-10-08T01:25:05.999Z,65.81
2022-10-08T01:28:36.770Z,65.85
2022-10-08T01:32:06.041Z,65.67
2022-10-08T01:35:37.982Z,65.75
2022-10-08T01:39:10.357Z,65.72
2022-10-08T01:42:40.587Z,65.59
2022-10-08T01:46:12.739Z,65.51
2022-10-08T01:49:44.101Z,65.61
2022-10-08T01:53:15.105Z,65.52
2022-10-08T01:56:44.829Z,65.61
2022-10-08T02:00:16.644Z,65.73
2022-10-08T02:04:03.652Z,65.77
2022-10-08T02:07:33.165Z,65.86
2022-10-08T02:10:59.871Z,65.88
2022-10-08T02:14:29.090Z,66.03
2022-10-08T02:18:06.463Z,66.12
2022-10-08T02:21:35.285Z,66.24
2022-10-08T02:25:08.423Z,66.14
2022-10-08T02:28:41.291Z,66.15
2022-10-08T02:32:14.822Z,65.86
2022-10-08T02:35:46.115Z,65.72
2022-10-08T02:39:15.548Z,65.48
2022-10-08T02:42:46.210Z,65.83
2022-10-08T02:46:17.469Z,66.07
2022-10-08T02:49:50.664Z,65.92
2022-10-08T02:53:18.958Z,66.02
2022-10-08T02:56:52.874Z,65.96
2022-10-08T03:00:20.312Z,66.42
2022-10-08T03:03:53.859Z,66.17
2022-10-08T03:07:23.237Z,66.24
2022-10-08T03:10:50.403Z,66.33
2022-10-08T03:14:20.488Z,66.63
2022-10-08T03:17:50.315Z,66.47
2022-10-08T03:21:18.228Z,66.71
2022-10-08T03:24:44.976Z,66.77
2022-10-08T03:28:11.863Z,67.01
2022-10-08T03:31:38.709Z,66.79
2022-10-08T03:35:05.574Z,66.87
2022-10-08T03:38:34.992Z,66.85
2022-10-08T03:42:01.731Z,66.87
2022-10-08T03:45:28.352Z,66.77
2022-10-08T03:48:54.938Z,66.71
2022-10-08T03:52:21.756Z,66.94
2022-10-08T03:55:48.317Z,66.98
2022-10-08T03:59:15.056Z,66.97
2022-10-08T04:02:42.035Z,67.01
2022-10-08T04:06:09.806Z,67.06
2022-10-08T04:09:36.667Z,67.16
2022-10-08T04:13:04.815Z,67.40
2022-10-08T04:16:31.620Z,67.56
2022-10-08T04:19:58.777Z,67.32
2022-10-08T04:23:25.321Z,67.57
2022-10-08T04:27:02.706Z,67.42
2022-10-08T04:30:31.453Z,67.46
2022-10-08T04:33:58.236Z,67.71
2022-10-08T04:37:24.758Z,67.76
2022-10-08T04:41:02.407Z,67.63
2022-10-08T04:44:29.159Z,67.71
2022-10-08T04:47:55.594Z,67.82
2022-10-08T04:51:24.616Z,67.71
2022-10-08T04:54:51.795Z,67.66
2022-10-08T04:58:18.298Z,68.02
2022-10-08T05:01:45.037Z,68.07
2022-10-08T05:05:12.617Z,67.98
2022-10-08T05:08:42.137Z,68.26
2022-10-08T05:12:09.117Z,68.31
2022-10-08T05:15:37.491Z,68.34
2022-10-08T05:19:04.912Z,68.53
2022-10-08T05:22:31.821Z,68.54
2022-10-08T05:25:58.564Z,68.44
2022-10-08T05:29:25.073Z,68.64
2022-10-08T05:32:51.759Z,68.50
2022-10-08T05:36:22.290Z,68.52
2022-10-08T05:39:48.770Z,68.46
2022-10-08T05:43:15.308Z,68.35
2022-10-08T05:46:42.772Z,68.46
2022-10-08T05:50:11.389Z,68.44
2022-10-08T05:53:41.393Z,68.43
2022-10-08T05:57:07.975Z,68.51
2022-10-08T06:00:34.334Z,68.62
2022-10-08T06:04:08.537Z,68.74
2022-10-08T06:07:36.060Z,68.95
2022-10-08T06:11:03.127Z,69.19
2022-10-08T06:14:29.866Z,69.38
2022-10-08T06:17:57.583Z,69.41
2022-10-08T06:21:26.430Z,69.42
2022-10-08T06:24:53.174Z,69.56
2022-10-08T06:28:20.026Z,69.55
2022-10-08T06:31:47.082Z,69.65
2022-10-08T06:35:14.342Z,69.52
2022-10-08T06:38:41.077Z,69.75
2022-10-08T06:42:08.622Z,69.67
2022-10-08T06:45:40.947Z,69.71
2022-10-08T06:49:08.394Z,69.76
2022-10-08T06:52:35.164Z,69.75
2022-10-08T06:56:03.417Z,69.71
2022-10-08T06:59:30.121Z,69.84
2022-10-08T07:02:57.519Z,69.85
2022-10-08T07:06:25.883Z,69.80
2022-10-08T07:09:52.313Z,69.75
2022-10-08T07:13:18.898Z,69.87
2022-10-08T07:16:46.033Z,69.72
2022-10-08T07:20:13.194Z,69.75
2022-10-08T07:23:42.602Z,69.87
2022-10-08T07:27:10.814Z,70.01
2022-10-08T07:30:39.446Z,69.98
2022-10-08T07:34:08.411Z,70.12
2022-10-08T07:37:35.294Z,70.14
2022-10-08T07:41:02.278Z,70.32
2022-10-08T07:44:28.932Z,70.28
2022-10-08T07:47:55.795Z,70.34
2022-10-08T07:51:23.398Z,70.17
2022-10-08T07:54:50.356Z,70.13
2022-10-08T07:58:17.245Z,70.02
2022-10-08T08:01:44.520Z,70.06
2022-10-08T08:05:12.598Z,70.11
2022-10-08T08:08:40.670Z,70.01
2022-10-08T08:12:07.323Z,69.97
2022-10-08T08:15:34.420Z,69.98
2022-10-08T08:19:03.051Z,70.06
2022-10-08T08:22:30.642Z,70.31
2022-10-08T08:25:57.592Z,70.38
2022-10-08T08:29:25.371Z,70.39
2022-10-08T08:32:55.167Z,70.35
2022-10-08T08:36:25.874Z,70.53
2022-10-08T08:39:52.784Z,70.31
2022-10-08T08:43:19.858Z,70.37
2022-10-08T08:46:53.514Z,70.27
2022-10-08T08:50:26.292Z,70.28
2022-10-08T08:53:53.824Z,70.17
2022-10-08T08:57:38.148Z,70.15
2022-10-08T09:01:15.494Z,70.02
2022-10-08T09:04:46.333Z,70.16
2022-10-08T09:08:22.369Z,70.11
2022-10-08T09:11:49.326Z,69.85
2022-10-08T09:15:26.952Z,69.90
2022-10-08T09:18:54.883Z,69.76
2022-10-08T09:22:27.555Z,69.86
2022-10-08T09:25:58.960Z,70.01
2022-10-08T09:29:37.779Z,70.02
2022-10-08T09:33:18.653Z,69.86
2022-10-08T09:36:48.267Z,69.78
2022-10-08T09:40:26.773Z,69.77
2022-10-08T09:44:16.238Z,69.64
2022-10-08T09:47:43.582Z,69.35
2022-10-08T09:51:18.962Z,69.16
2022-10-08T09:54:50.328Z,69.19
2022-10-08T09:58:20.654Z,69.11
2022-10-08T10:01:49.931Z,69.12
2022-10-08T10:05:27.273Z,68.81
2022-10-08T10:09:03.659Z,68.67
2022-10-08T10:12:38.066Z,68.65
2022-10-08T10:16:10.180Z,68.57
2022-10-08T10:19:43.479Z,68.55
2022-10-08T10:23:18.010Z,68.38
2022-10-08T10:26:47.471Z,68.37
2022-10-08T10:30:21.206Z,68.42
2022-10-08T10:33:58.950Z,68.34
2022-10-08T10:37:35.433Z,68.24
2022-10-08T10:41:13.093Z,68.25
2022-10-08T10:44:53.454Z,68.11
2022-10-08T10:48:20.032Z,67.98
2022-10-08T10:52:07.373Z,67.85
2022-10-08T10:55:40.215Z,67.73
2022-10-08T10:59:36.032Z,67.36
2022-10-08T11:03:12.064Z,67.43
2022-10-08T11:07:02.974Z,67.32
2022-10-08T11:10:41.847Z,67.14
2022-10-08T11:14:21.319Z,67.27
2022-10-08T11:18:12.170Z,67.13
2022-10-08T11:21:49.672Z,66.94
2022-10-08T11:25:44.673Z,66.73
2022-10-08T11:29:30.159Z,66.69
2022-10-08T11:33:12.883Z,66.39
2022-10-08T11:36:48.893Z,66.21
2022-10-08T11:40:27.167Z,66.14
2022-10-08T11:44:00.909Z,66.06
2022-10-08T11:47:53.843Z,66.13
2022-10-08T11:51:41.251Z,65.95
2022-10-08T11:55:19.134Z,65.99
2022-10-08T11:58:54.596Z,65.94
2022-10-08T12:02:30.110Z,65.75
2022-10-08T12:05:59.096Z,65.46
2022-10-08T12:09:27.732Z,65.19
2022-10-08T12:13:24.425Z,65.00
2022-10-08T12:17:11.913Z,64.69
2022-10-08T12:20:41.629Z,64.57
2022-10-08T12:24:50.354Z,64.64
2022-10-08T12:28:52.131Z,64.66
2022-10-08T12:32:22.002Z,64.54
2022-10-08T12:36:00.499Z,64.12
2022-10-08T12:39:40.985Z,64.01
2022-10-08T12:43:23.280Z,63.69
2022-10-08T12:47:01.057Z,63.51
2022-10-08T12:50:49.812Z,63.50
2022-10-08T12:54:26.404Z,63.23
2022-10-08T12:57:57.058Z,63.17
2022-10-08T13:01:24.897Z,62.91
2022-10-08T13:04:53.869Z,62.77
2022-10-08T13:08:40.174Z,62.68
2022-10-08T13:12:11.169Z,62.71
2022-10-08T13:15:38.741Z,62.74
2022-10-08T13:19:23.814Z,62.81
2022-10-08T13:22:52.711Z,62.64
2022-10-08T13:26:43.263Z,62.60
2022-10-08T13:30:29.336Z,62.46
2022-10-08T13:34:04.054Z,62.35
2022-10-08T13:37:37.392Z,62.29
2022-10-08T13:41:06.617Z,62.20
2022-10-08T13:44:35.358Z,62.04
2022-10-08T13:48:02.302Z,61.84
2022-10-08T13:51:29.975Z,61.68
2022-10-08T13:55:02.666Z,61.34
2022-10-08T13:58:33.460Z,61.17
2022-10-08T14:02:00.807Z,61.11
2022-10-08T14:05:31.838Z,61.13
2022-10-08T14:08:59.288Z,61.03
2022-10-08T14:12:30.342Z,60.96
2022-10-08T14:15:57.173Z,60.89
2022-10-08T14:19:24.067Z,60.78
2022-10-08T14:22:51.985Z,60.58
2022-10-08T14:26:21.920Z,60.53
2022-10-08T14:29:49.087Z,60.53
2022-10-08T14:33:16.050Z,60.23
2022-10-08T14:36:43.876Z,60.14
2022-10-08T14:40:19.873Z,60.10
2022-10-08T14:43:49.303Z,60.00
2022-10-08T14:47:16.370Z,60.13
2022-10-08T14:50:43.889Z,59.99
2022-10-08T14:54:12.641Z,60.02
2022-10-08T14:57:41.922Z,59.85
2022-10-08T15:01:09.409Z,59.69
2022-10-08T15:04:38.598Z,59.64
2022-10-08T15:08:05.516Z,59.59
2022-10-08T15:11:32.603Z,59.62
2022-10-08T15:14:59.815Z,59.81
2022-10-08T15:18:31.208Z,59.61
2022-10-08T15:22:03.307Z,59.64
2022-10-08T15:25:30.047Z,59.51
2022-10-08T15:28:57.367Z,59.61
2022-10-08T15:32:29.646Z,59.49
2022-10-08T15:35:59.008Z,59.45
2022-10-08T15:39:26.754Z,59.44
2022-10-08T15:42:54.396Z,59.45
2022-10-08T15:46:26.306Z,59.44
2022-10-08T15:49:53.280Z,59.48
2022-10-08T15:53:20.251Z,59.48
2022-10-08T15:56:47.419Z,59.56
2022-10-08T16:00:16.377Z,59.65
2022-10-08T16:03:45.027Z,59.76
2022-10-08T16:07:12.383Z,59.75
2022-10-08T16:10:39.695Z,59.82
2022-10-08T16:14:08.956Z,59.85
2022-10-08T16:17:35.900Z,59.91
2022-10-08T16:21:05.727Z,60.04
2022-10-08T16:24:32.673Z,60.04
2022-10-08T16:28:02.504Z,60.18
2022-10-08T16:31:32.606Z,60.21
2022-10-08T16:34:59.149Z,60.41
2022-10-08T16:38:26.666Z,60.54
2022-10-08T16:41:54.191Z,60.64
2022-10-08T16:45:21.447Z,60.67
2022-10-08T16:48:53.771Z,60.71
2022-10-08T16:52:20.850Z,60.94
2022-10-08T16:55:47.735Z,61.08
2022-10-08T16:59:19.345Z,61.10
2022-10-08T17:02:46.838Z,61.18
2022-10-08T17:06:16.730Z,61.13
2022-10-08T17:09:44.898Z,61.21
2022-10-08T17:13:11.757Z,61.32
2022-10-08T17:16:39.900Z,61.42
2022-10-08T17:20:08.186Z,61.47
2022-10-08T17:23:38.473Z,61.61
2022-10-08T17:27:05.925Z,61.63
2022-10-08T17:30:39.746Z,61.78
2022-10-08T17:34:07.712Z,61.93
2022-10-08T17:37:35.411Z,61.92
2022-10-08T17:41:02.576Z,62.04
2022-10-08T17:44:34.295Z,61.98
2022-10-08T17:48:05.445Z,62.16
2022-10-08T17:51:35.043Z,62.31
2022-10-08T17:55:02.638Z,62.35
2022-10-08T17:58:32.190Z,62.56
2022-10-08T18:02:02.670Z,62.63
2022-10-08T18:05:30.550Z,62.67
2022-10-08T18:09:02.428Z,63.14
2022-10-08T18:12:32.727Z,63.11
2022-10-08T18:16:03.925Z,63.28
2022-10-08T18:19:30.530Z,63.52
2022-10-08T18:22:57.643Z,63.61
2022-10-08T18:26:27.118Z,63.69
2022-10-08T18:29:56.668Z,63.86
2022-10-08T18:33:24.852Z,63.88
2022-10-08T18:36:53.097Z,64.03
2022-10-08T18:40:22.595Z,64.14
2022-10-08T18:43:50.926Z,64.13
2022-10-08T18:47:17.434Z,64.12
2022-10-08T18:50:49.199Z,64.32
2022-10-08T18:54:16.085Z,64.42
2022-10-08T18:57:56.047Z,64.31
2022-10-08T19:01:25.701Z,64.47
2022-10-08T19:04:53.431Z,64.57
2022-10-08T19:08:20.440Z,64.87
2022-10-08T19:11:49.288Z,64.81
2022-10-08T19:15:15.963Z,64.85
2022-10-08T19:18:43.939Z,65.33
2022-10-08T19:22:13.153Z,65.37
2022-10-08T19:25:40.318Z,65.67
2022-10-08T19:29:07.618Z,65.59
2022-10-08T19:32:34.691Z,65.93
2022-10-08T19:36:05.046Z,65.78
2022-10-08T19:39:34.177Z,66.06
2022-10-08T19:43:03.579Z,66.13
2022-10-08T19:46:31.166Z,66.18
2022-10-08T19:49:58.639Z,66.17
2022-10-08T19:53:25.257Z,66.46
2022-10-08T19:56:51.872Z,66.47
2022-10-08T20:00:19.791Z,66.61
2022-10-08T20:03:48.490Z,66.72
2022-10-08T20:07:16.038Z,66.64
2022-10-08T20:10:44.035Z,66.87
2022-10-08T20:14:10.971Z,66.82
2022-10-08T20:17:38.023Z,66.82
2022-10-08T20:21:07.280Z,66.87
2022-10-08T20:24:34.365Z,67.14
2022-10-08T20:28:01.182Z,67.10
2022-10-08T20:31:30.151Z,67.36
2022-10-08T20:34:58.316Z,67.39
2022-10-08T20:38:27.709Z,67.45
2022-10-08T20:41:54.657Z,67.43
2022-10-08T20:45:22.320Z,67.56
2022-10-08T20:48:50.024Z,67.56
2022-10-08T20:52:18.585Z,67.67
2022-10-08T20:55:45.532Z,67.82
2022-10-08T20:59:16.183Z,67.85
2022-10-08T21:02:44.992Z,67.86
2022-10-08T21:06:14.142Z,67.90
2022-10-08T21:09:43.651Z,67.87
2022-10-08T21:13:14.098Z,68.14
2022-10-08T21:16:42.988Z,68.11
2022-10-08T21:20:13.690Z,67.90
2022-10-08T21:23:42.012Z,67.97
2022-10-08T21:27:11.162Z,67.84
2022-10-08T21:30:38.893Z,67.88
2022-10-08T21:34:08.570Z,68.09
2022-10-08T21:37:36.424Z,67.91
2022-10-08T21:41:14.864Z,67.91
2022-10-08T21:49:04.716Z,67.97
2022-10-08T21:52:34.259Z,68.10
2022-10-08T21:56:05.022Z,68.14
2022-10-08T21:59:32.281Z,68.09
2022-10-08T22:02:59.064Z,68.17
2022-10-08T22:06:27.111Z,68.16
2022-10-08T22:10:01.892Z,68.10
2022-10-08T22:13:29.041Z,68.27
2022-10-08T22:16:57.474Z,68.20
2022-10-08T22:20:24.189Z,68.16
2022-10-08T22:23:53.288Z,68.15
2022-10-08T22:27:20.243Z,68.12
2022-10-08T22:30:47.083Z,68.11
2022-10-08T22:34:14.603Z,68.15
2022-10-08T22:37:42.663Z,68.17
2022-10-08T22:41:14.321Z,68.25
2022-10-08T22:44:44.670Z,68.21
2022-10-08T22:48:13.997Z,68.15
2022-10-08T22:51:46.412Z,68.32
2022-10-08T22:55:18.380Z,68.50
2022-10-08T22:59:00.909Z,68.50
2022-10-08T23:02:29.028Z,68.27
2022-10-08T23:06:08.217Z,68.47
2022-10-08T23:09:34.834Z,68.45
2022-10-08T23:13:04.478Z,68.48
2022-10-08T23:16:38.411Z,68.46
2022-10-08T23:20:06.001Z,68.41
2022-10-08T23:23:33.795Z,68.41
2022-10-08T23:27:00.977Z,68.37
2022-10-08T23:30:42.561Z,68.48
2022-10-08T23:34:10.366Z,68.55
2022-10-08T23:37:37.635Z,68.65
2022-10-08T23:41:06.539Z,68.70
2022-10-08T23:44:33.708Z,68.82
2022-10-08T23:48:01.616Z,68.74
2022-10-08T23:51:32.007Z,69.00
2022-10-08T23:54:59.046Z,69.07
2022-10-08T23:58:29.232Z,69.06
